createdAt,value
2023-02-22T00:01:35.727Z,11.07
2023-02-22T00:04:10.391Z,10.38
2023-02-22T00:06:42.069Z,14.10
2023-02-22T00:09:14.233Z,15.68
2023-02-22T00:11:52.244Z,13.80
2023-02-22T00:14:26.605Z,14.73
2023-02-22T00:16:59.874Z,12.45
2023-02-22T00:19:31.363Z,9.00
2023-02-22T00:22:03.275Z,8.27
2023-02-22T00:24:36.328Z,12.27
2023-02-22T00:27:09.983Z,10.70
2023-02-22T00:29:40.870Z,8.90
2023-02-22T00:32:12.126Z,12.23
2023-02-22T00:34:44.287Z,13.23
2023-02-22T00:37:15.376Z,10.55
2023-02-22T00:39:49.219Z,11.38
2023-02-22T00:42:23.061Z,9.85
2023-02-22T00:44:54.127Z,9.80
2023-02-22T00:47:26.597Z,11.93
2023-02-22T00:49:57.444Z,10.52
2023-02-22T00:52:29.018Z,11.30
2023-02-22T00:57:35.335Z,10.85
2023-02-22T01:00:12.126Z,12.02
2023-02-22T01:02:44.357Z,8.68
2023-02-22T01:05:17.869Z,9.95
2023-02-22T01:07:49.904Z,10.43
2023-02-22T01:10:22.499Z,7.95
2023-02-22T01:12:56.593Z,8.88
2023-02-22T01:15:30.967Z,9.63
2023-02-22T01:18:03.184Z,9.68
2023-02-22T01:20:34.214Z,8.77
2023-02-22T01:23:08.092Z,13.38
2023-02-22T01:25:39.724Z,9.40
2023-02-22T01:28:13.946Z,8.85
2023-02-22T01:30:44.828Z,7.35
2023-02-22T01:33:16.117Z,9.57
2023-02-22T01:35:51.058Z,7.45
2023-02-22T01:38:22.229Z,7.55
2023-02-22T01:43:29.814Z,9.25
2023-02-22T01:46:04.342Z,7.63
2023-02-22T01:48:44.705Z,8.70
2023-02-22T01:51:19.019Z,12.15
2023-02-22T01:53:53.368Z,12.60
2023-02-22T01:56:26.934Z,10.70
2023-02-22T01:59:07.124Z,10.73
2023-02-22T02:01:39.495Z,10.68
2023-02-22T02:04:15.776Z,9.57
2023-02-22T02:06:47.172Z,11.77
2023-02-22T02:09:23.314Z,8.98
2023-02-22T02:11:54.178Z,10.65
2023-02-22T02:14:28.151Z,10.88
2023-02-22T02:17:01.635Z,9.38
2023-02-22T02:19:44.862Z,14.07
2023-02-22T02:22:31.585Z,11.30
2023-02-22T02:25:35.959Z,8.38
2023-02-22T02:28:36.442Z,11.43
2023-02-22T02:31:37.194Z,8.48
2023-02-22T02:34:18.797Z,12.93
2023-02-22T02:36:59.829Z,12.38
2023-02-22T02:39:34.639Z,14.65
2023-02-22T02:42:10.607Z,15.38
2023-02-22T02:44:45.043Z,13.63
2023-02-22T02:47:20.790Z,14.25
2023-02-22T02:49:59.261Z,11.25
2023-02-22T02:52:33.353Z,9.27
2023-02-22T02:55:05.507Z,9.98
2023-02-22T02:57:36.599Z,9.27
2023-02-22T03:00:22.684Z,7.85
2023-02-22T03:03:08.345Z,9.82
2023-02-22T03:05:55.814Z,10.90
2023-02-22T03:08:33.713Z,11.70
2023-02-22T03:11:15.638Z,11.90
2023-02-22T03:13:56.501Z,12.30
2023-02-22T03:16:36.113Z,13.13
2023-02-22T03:19:15.074Z,11.63
2023-02-22T03:21:56.939Z,7.32
2023-02-22T03:24:33.342Z,9.90
2023-02-22T03:27:09.585Z,10.80
2023-02-22T03:29:46.033Z,16.88
2023-02-22T03:32:23.397Z,17.88
2023-02-22T03:34:59.953Z,9.60
2023-02-22T03:37:37.920Z,12.52
2023-02-22T03:40:16.841Z,9.27
2023-02-22T03:42:54.937Z,7.82
2023-02-22T03:45:30.324Z,10.68
2023-02-22T03:48:07.698Z,10.40
2023-02-22T03:50:40.960Z,8.48
2023-02-22T03:53:15.154Z,7.80
2023-02-22T03:55:47.005Z,6.50
2023-02-22T04:00:53.427Z,7.10
2023-02-22T04:03:25.361Z,8.23
2023-02-22T04:09:49.303Z,8.60
2023-02-22T04:12:21.229Z,7.70
2023-02-22T04:14:59.190Z,15.90
2023-02-22T04:17:30.611Z,25.55
2023-02-22T04:20:02.288Z,26.77
2023-02-22T04:22:41.572Z,11.57
2023-02-22T04:25:15.247Z,13.75
2023-02-22T04:27:46.380Z,18.85
2023-02-22T04:30:20.404Z,16.25
2023-02-22T04:32:52.628Z,9.60
2023-02-22T04:35:25.333Z,12.32
2023-02-22T04:37:56.691Z,9.18
2023-02-22T04:43:01.288Z,11.02
2023-02-22T04:45:34.110Z,12.00
2023-02-22T04:48:07.401Z,8.20
2023-02-22T04:50:38.387Z,11.80
2023-02-22T04:53:09.743Z,12.55
2023-02-22T04:55:44.782Z,9.65
2023-02-22T04:58:16.125Z,8.27
2023-02-22T05:00:46.923Z,11.57
2023-02-22T05:03:18.230Z,14.00
2023-02-22T05:08:19.946Z,12.80
2023-02-22T05:10:53.238Z,12.20
2023-02-22T05:13:24.354Z,10.38
2023-02-22T05:15:55.236Z,8.57
2023-02-22T05:18:26.576Z,10.75
2023-02-22T05:20:57.260Z,10.60
2023-02-22T05:23:28.328Z,11.77
2023-02-22T05:26:01.619Z,15.77
2023-02-22T05:28:32.688Z,11.30
2023-02-22T05:31:03.448Z,31.50
2023-02-22T05:33:34.572Z,36.08
2023-02-22T05:36:05.281Z,23.65
2023-02-22T05:38:36.333Z,23.80
2023-02-22T05:41:09.629Z,22.80
2023-02-22T05:43:41.496Z,18.50
2023-02-22T05:46:12.664Z,20.33
2023-02-22T05:48:43.921Z,20.23
2023-02-22T05:51:14.897Z,20.27
2023-02-22T05:53:46.279Z,20.88
2023-02-22T05:56:24.791Z,19.80
2023-02-22T05:58:56.357Z,22.35
2023-02-22T06:01:27.341Z,20.40
2023-02-22T06:03:58.380Z,23.48
2023-02-22T06:06:29.065Z,23.60
2023-02-22T06:09:00.097Z,31.63
2023-02-22T06:11:33.895Z,28.67
2023-02-22T06:14:04.941Z,19.48
2023-02-22T06:19:07.537Z,21.30
2023-02-22T06:21:38.236Z,13.73
2023-02-22T06:24:10.064Z,14.05
2023-02-22T06:26:44.126Z,18.23
2023-02-22T06:29:15.328Z,16.02
2023-02-22T06:34:16.888Z,17.08
2023-02-22T06:36:48.155Z,16.20
2023-02-22T06:39:19.856Z,17.38
2023-02-22T06:41:55.458Z,14.82
2023-02-22T06:44:26.609Z,16.33
2023-02-22T06:52:00.525Z,17.08
2023-02-22T06:54:31.673Z,18.58
2023-02-22T06:57:05.103Z,18.33
2023-02-22T06:59:36.183Z,19.80
2023-02-22T07:02:06.992Z,17.50
2023-02-22T07:04:38.171Z,20.45
2023-02-22T07:09:39.641Z,21.98
2023-02-22T07:12:13.079Z,20.98
2023-02-22T07:14:44.271Z,22.30
2023-02-22T07:19:45.795Z,15.05
2023-02-22T07:24:50.274Z,27.38
2023-02-22T07:27:23.620Z,38.03
2023-02-22T07:29:54.685Z,28.88
2023-02-22T07:32:25.785Z,30.70
2023-02-22T07:34:56.875Z,28.95
2023-02-22T07:39:58.428Z,24.10
2023-02-22T07:45:04.364Z,37.47
2023-02-22T07:47:35.043Z,26.88
2023-02-22T07:50:06.199Z,15.95
2023-02-22T07:55:10.088Z,22.38
2023-02-22T07:57:44.021Z,19.42
2023-02-22T08:00:17.866Z,13.60
2023-02-22T08:02:48.665Z,15.77
2023-02-22T08:05:20.020Z,37.63
2023-02-22T08:07:50.787Z,12.13
2023-02-22T08:10:24.822Z,9.05
2023-02-22T08:12:58.825Z,19.10
2023-02-22T08:15:32.953Z,12.10
2023-02-22T08:18:04.616Z,22.90
2023-02-22T08:20:35.897Z,18.42
2023-02-22T08:23:07.897Z,11.68
2023-02-22T08:25:39.561Z,15.63
2023-02-22T08:28:15.263Z,17.48
2023-02-22T08:30:47.100Z,14.50
2023-02-22T08:33:20.032Z,10.77
2023-02-22T08:35:52.376Z,11.55
2023-02-22T08:38:25.558Z,12.50
2023-02-22T08:40:57.533Z,27.38
2023-02-22T08:43:31.556Z,8.48
2023-02-22T08:46:02.680Z,13.38
2023-02-22T08:51:04.234Z,25.40
2023-02-22T08:53:35.441Z,44.35
2023-02-22T08:56:06.706Z,12.70
2023-02-22T08:58:40.354Z,24.23
2023-02-22T09:01:12.922Z,10.88
2023-02-22T09:03:44.959Z,47.10
2023-02-22T09:06:16.131Z,15.52
2023-02-22T09:08:47.267Z,11.27
2023-02-22T09:11:19.014Z,13.98
2023-02-22T09:13:52.339Z,11.90
2023-02-22T09:16:23.632Z,16.10
2023-02-22T09:18:54.427Z,11.20
2023-02-22T09:21:25.544Z,9.40
2023-02-22T09:23:57.427Z,10.55
2023-02-22T09:26:28.521Z,18.40
2023-02-22T09:29:01.936Z,160.00
2023-02-22T09:31:33.116Z,28.15
2023-02-22T09:36:35.966Z,9.48
2023-02-22T09:39:06.752Z,27.55
2023-02-22T09:41:46.679Z,16.38
2023-02-22T09:44:27.771Z,9.15
2023-02-22T09:47:00.760Z,9.57
2023-02-22T09:49:38.335Z,42.40
2023-02-22T09:52:18.949Z,58.00
2023-02-22T09:54:53.885Z,33.17
2023-02-22T09:57:30.790Z,12.20
2023-02-22T10:00:15.132Z,16.98
2023-02-22T10:02:53.039Z,19.00
2023-02-22T10:05:29.596Z,13.18
2023-02-22T10:08:06.167Z,9.80
2023-02-22T10:10:39.802Z,19.80
2023-02-22T10:13:25.154Z,12.23
2023-02-22T10:16:05.634Z,13.57
2023-02-22T10:21:36.895Z,9.57
2023-02-22T10:24:16.434Z,13.80
2023-02-22T10:26:49.043Z,10.73
2023-02-22T10:29:27.952Z,17.90
2023-02-22T10:32:05.055Z,9.45
2023-02-22T10:34:44.284Z,11.90
2023-02-22T10:37:25.826Z,11.95
2023-02-22T10:40:05.518Z,16.45
2023-02-22T10:42:36.292Z,10.15
2023-02-22T10:45:08.048Z,10.20
2023-02-22T10:47:41.389Z,10.95
2023-02-22T10:50:16.887Z,12.82
2023-02-22T10:52:47.618Z,12.18
2023-02-22T10:55:19.615Z,15.90
2023-02-22T10:57:54.154Z,13.02
2023-02-22T11:00:37.595Z,14.45
2023-02-22T11:03:21.376Z,17.90
2023-02-22T11:05:53.045Z,18.33
2023-02-22T11:08:30.774Z,16.08
2023-02-22T11:11:06.667Z,13.70
2023-02-22T11:13:41.566Z,16.85
2023-02-22T11:16:22.617Z,17.02
2023-02-22T11:19:04.214Z,17.33
2023-02-22T11:21:35.535Z,13.50
2023-02-22T11:24:11.460Z,11.55
2023-02-22T11:26:46.237Z,18.92
2023-02-22T11:29:23.455Z,23.73
2023-02-22T11:31:55.564Z,19.52
2023-02-22T11:34:36.646Z,16.27
2023-02-22T11:37:32.617Z,18.80
2023-02-22T11:40:20.087Z,16.65
2023-02-22T11:42:52.247Z,11.20
2023-02-22T11:45:26.009Z,17.23
2023-02-22T11:47:59.281Z,17.63
2023-02-22T11:50:42.251Z,17.70
2023-02-22T11:53:28.335Z,13.68
2023-02-22T11:56:17.351Z,28.00
2023-02-22T11:58:54.362Z,21.85
2023-02-22T12:01:31.433Z,27.10
2023-02-22T12:04:38.333Z,18.55
2023-02-22T12:07:36.238Z,25.30
2023-02-22T12:10:21.219Z,26.63
2023-02-22T12:13:04.485Z,30.05
2023-02-22T12:15:42.789Z,27.58
2023-02-22T12:18:20.996Z,20.63
2023-02-22T12:20:59.855Z,16.95
2023-02-22T12:23:41.668Z,18.73
2023-02-22T12:26:20.277Z,27.98
2023-02-22T12:29:00.052Z,33.22
2023-02-22T12:31:34.272Z,31.52
2023-02-22T12:34:12.045Z,19.90
2023-02-22T12:36:48.938Z,18.58
2023-02-22T12:39:52.780Z,22.50
2023-02-22T12:42:33.180Z,17.25
2023-02-22T12:45:11.281Z,22.08
2023-02-22T12:47:48.938Z,19.25
2023-02-22T12:50:25.395Z,23.27
2023-02-22T12:53:01.030Z,19.92
2023-02-22T12:55:40.123Z,17.48
2023-02-22T12:58:18.582Z,24.63
2023-02-22T13:00:54.277Z,18.20
2023-02-22T13:03:34.450Z,15.55
2023-02-22T13:06:31.039Z,20.90
2023-02-22T13:09:17.611Z,24.67
2023-02-22T13:12:00.479Z,19.92
2023-02-22T13:14:46.517Z,15.00
2023-02-22T13:17:27.310Z,16.17
2023-02-22T13:20:06.302Z,32.15
2023-02-22T13:22:44.868Z,17.05
2023-02-22T13:25:20.655Z,18.17
2023-02-22T13:27:58.338Z,26.55
2023-02-22T13:30:39.593Z,31.30
2023-02-22T13:36:10.481Z,46.83
2023-02-22T13:38:58.704Z,35.90
2023-02-22T13:41:53.130Z,46.80
2023-02-22T13:44:54.311Z,18.02
2023-02-22T13:48:10.022Z,37.85
2023-02-22T13:51:07.556Z,40.97
2023-02-22T13:53:46.974Z,29.88
2023-02-22T13:56:19.270Z,27.20
2023-02-22T13:58:56.166Z,42.55
2023-02-22T14:01:45.887Z,171.55
2023-02-22T14:04:44.296Z,89.80
2023-02-22T14:07:57.140Z,31.25
2023-02-22T14:10:53.045Z,34.00
2023-02-22T14:13:26.903Z,22.25
2023-02-22T14:16:21.218Z,21.75
2023-02-22T14:19:06.762Z,23.88
2023-02-22T14:21:38.475Z,19.23
2023-02-22T14:24:13.230Z,19.40
2023-02-22T14:26:57.678Z,29.70
2023-02-22T14:29:29.125Z,39.72
2023-02-22T14:32:06.696Z,69.80
2023-02-22T14:34:50.012Z,155.85
2023-02-22T14:37:25.159Z,367.63
2023-02-22T14:40:13.119Z,510.25
2023-02-22T14:42:48.752Z,159.23
2023-02-22T14:45:28.536Z,67.30
2023-02-22T14:48:11.884Z,40.75
2023-02-22T14:50:53.823Z,110.57
2023-02-22T14:53:41.287Z,39.08
2023-02-22T14:56:18.060Z,19.95
2023-02-22T14:58:55.213Z,14.57
2023-02-22T15:01:44.374Z,21.80
2023-02-22T15:04:21.929Z,26.45
2023-02-22T15:06:55.975Z,18.33
2023-02-22T15:09:30.219Z,26.38
2023-02-22T15:12:18.401Z,41.15
2023-02-22T15:14:50.020Z,36.40
2023-02-22T15:17:24.926Z,51.28
2023-02-22T15:19:56.967Z,34.80
2023-02-22T15:22:36.898Z,28.48
2023-02-22T15:25:11.960Z,30.83
2023-02-22T15:27:47.700Z,24.45
2023-02-22T15:30:26.787Z,40.13
2023-02-22T15:33:04.475Z,24.52
2023-02-22T15:35:36.846Z,26.45
2023-02-22T15:38:21.709Z,24.60
2023-02-22T15:41:03.395Z,21.85
2023-02-22T15:43:35.125Z,26.88
2023-02-22T15:46:07.014Z,33.83
2023-02-22T15:48:41.370Z,31.40
2023-02-22T15:51:14.969Z,37.08
2023-02-22T15:53:50.574Z,36.15
2023-02-22T15:56:27.231Z,47.63
2023-02-22T15:59:03.935Z,72.18
2023-02-22T16:01:42.719Z,69.05
2023-02-22T16:04:20.627Z,52.13
2023-02-22T16:06:53.580Z,60.47
2023-02-22T16:09:30.482Z,39.13
2023-02-22T16:12:12.558Z,32.47
2023-02-22T16:14:45.686Z,28.42
2023-02-22T16:17:31.906Z,36.97
2023-02-22T16:20:05.553Z,34.00
2023-02-22T16:22:39.144Z,31.02
2023-02-22T16:25:29.950Z,29.23
2023-02-22T16:28:06.412Z,37.85
2023-02-22T16:30:39.757Z,53.95
2023-02-22T16:33:13.977Z,56.03
2023-02-22T16:35:52.260Z,52.42
2023-02-22T16:38:23.737Z,43.22
2023-02-22T16:40:58.845Z,57.97
2023-02-22T16:43:33.518Z,52.50
2023-02-22T16:46:07.160Z,34.17
2023-02-22T16:48:39.361Z,35.97
2023-02-22T16:51:15.005Z,49.78
2023-02-22T16:53:46.547Z,38.38
2023-02-22T16:56:23.118Z,33.28
2023-02-22T16:58:55.010Z,39.47
2023-02-22T17:01:26.716Z,48.72
2023-02-22T17:03:57.910Z,68.28
2023-02-22T17:09:00.479Z,59.25
2023-02-22T17:11:33.903Z,84.93
2023-02-22T17:14:05.177Z,62.88
2023-02-22T17:19:07.123Z,69.68
2023-02-22T17:21:37.896Z,65.60
2023-02-22T17:24:09.547Z,58.75
2023-02-22T17:26:43.722Z,67.68
2023-02-22T17:29:15.492Z,42.47
2023-02-22T17:31:46.381Z,34.63
2023-02-22T17:34:18.108Z,33.40
2023-02-22T17:36:48.961Z,33.20
2023-02-22T17:39:20.235Z,53.03
2023-02-22T17:41:57.857Z,31.02
2023-02-22T17:44:30.299Z,45.67
2023-02-22T17:47:01.568Z,40.25
2023-02-22T17:49:33.072Z,32.70
2023-02-22T17:52:06.489Z,43.78
2023-02-22T17:54:37.750Z,49.70
2023-02-22T17:59:41.900Z,36.85
2023-02-22T18:04:44.160Z,30.05
2023-02-22T18:09:50.469Z,66.03
2023-02-22T18:14:55.999Z,76.60
2023-02-22T18:17:26.791Z,81.75
2023-02-22T18:19:57.931Z,161.05
2023-02-22T18:25:01.703Z,174.63
2023-02-22T18:27:35.437Z,155.63
2023-02-22T18:30:07.560Z,152.60
2023-02-22T18:32:40.101Z,135.60
2023-02-22T18:35:11.656Z,110.25
2023-02-22T18:37:44.663Z,101.50
2023-02-22T18:40:19.151Z,131.00
2023-02-22T18:42:53.173Z,99.65
2023-02-22T18:45:26.918Z,92.95
2023-02-22T18:47:58.636Z,61.67
2023-02-22T18:50:29.829Z,68.07
2023-02-22T18:55:31.341Z,78.95
2023-02-22T18:58:04.950Z,87.00
2023-02-22T19:00:38.464Z,45.65
2023-02-22T19:03:09.322Z,33.78
2023-02-22T19:05:40.483Z,32.75
2023-02-22T19:08:14.184Z,31.35
2023-02-22T19:10:45.226Z,17.30
2023-02-22T19:13:19.187Z,31.23
2023-02-22T19:15:50.249Z,49.05
2023-02-22T19:18:21.953Z,43.63
2023-02-22T19:20:59.350Z,77.78
2023-02-22T19:23:34.905Z,70.43
2023-02-22T19:26:09.526Z,112.72
2023-02-22T19:28:42.829Z,87.10
2023-02-22T19:31:16.756Z,74.15
2023-02-22T19:33:48.505Z,111.85
2023-02-22T19:36:20.144Z,156.93
2023-02-22T19:38:50.953Z,120.75
2023-02-22T19:41:24.762Z,115.32
2023-02-22T19:43:58.684Z,54.22
2023-02-22T19:46:29.873Z,36.53
2023-02-22T19:51:33.961Z,23.52
2023-02-22T19:54:21.585Z,15.63
2023-02-22T19:56:53.872Z,20.73
2023-02-22T19:59:27.969Z,16.92
2023-02-22T20:01:59.680Z,19.83
2023-02-22T20:04:30.980Z,30.65
2023-02-22T20:07:02.395Z,33.42
2023-02-22T20:09:37.452Z,23.95
2023-02-22T20:12:09.715Z,32.80
2023-02-22T20:14:43.104Z,42.08
2023-02-22T20:17:14.149Z,32.83
2023-02-22T20:19:44.986Z,37.05
2023-02-22T20:22:16.064Z,38.08
2023-02-22T20:24:47.711Z,48.67
2023-02-22T20:27:18.988Z,67.15
2023-02-22T20:32:24.980Z,92.32
2023-02-22T20:34:55.902Z,90.10
2023-02-22T20:37:28.067Z,71.22
2023-02-22T20:40:00.045Z,59.60
2023-02-22T20:42:31.618Z,72.90
2023-02-22T20:45:06.349Z,140.65
2023-02-22T20:47:37.993Z,272.65
2023-02-22T20:50:10.133Z,264.40
2023-02-22T20:52:41.183Z,146.98
2023-02-22T20:57:43.048Z,121.20
2023-02-22T21:02:49.796Z,69.50
2023-02-22T21:05:20.898Z,68.97
2023-02-22T21:07:51.934Z,85.28
2023-02-22T21:10:23.974Z,69.93
2023-02-22T21:12:56.915Z,76.80
2023-02-22T21:15:32.267Z,70.90
2023-02-22T21:18:03.380Z,57.47
2023-02-22T21:23:05.403Z,44.03
2023-02-22T21:25:37.037Z,52.30
2023-02-22T21:28:08.788Z,42.15
2023-02-22T21:30:42.258Z,45.58
2023-02-22T21:33:15.116Z,72.75
2023-02-22T21:35:47.321Z,81.05
2023-02-22T21:38:21.004Z,91.03
2023-02-22T21:40:55.693Z,89.70
2023-02-22T21:43:27.584Z,80.15
2023-02-22T21:46:02.612Z,82.30
2023-02-22T21:48:34.938Z,80.43
2023-02-22T21:51:14.113Z,67.70
2023-02-22T21:53:47.929Z,53.50
2023-02-22T21:56:23.037Z,45.38
2023-02-22T21:59:03.094Z,34.13
2023-02-22T22:01:38.658Z,35.90
2023-02-22T22:04:09.850Z,38.75
2023-02-22T22:09:18.598Z,32.20
2023-02-22T22:11:50.847Z,31.27
2023-02-22T22:14:23.327Z,32.10
2023-02-22T22:16:58.779Z,24.35
2023-02-22T22:19:30.721Z,23.38
2023-02-22T22:22:01.726Z,21.45
2023-02-22T22:24:35.146Z,25.08
2023-02-22T22:27:09.938Z,26.10
2023-02-22T22:29:41.420Z,22.30
2023-02-22T22:32:16.500Z,26.58
2023-02-22T22:34:49.526Z,30.00
2023-02-22T22:37:22.682Z,24.58
2023-02-22T22:39:53.900Z,26.92
2023-02-22T22:44:56.436Z,28.15
2023-02-22T22:47:32.386Z,29.33
2023-02-22T22:50:03.440Z,31.80
2023-02-22T22:52:35.427Z,29.75
2023-02-22T22:55:10.313Z,30.25
2023-02-22T22:57:42.564Z,26.92
2023-02-22T23:00:38.228Z,36.45
2023-02-22T23:03:19.396Z,30.30
2023-02-22T23:05:50.545Z,27.02
2023-02-22T23:08:29.434Z,45.80
2023-02-22T23:11:00.561Z,26.73
2023-02-22T23:16:02.191Z,27.80
2023-02-22T23:18:36.607Z,35.03
2023-02-22T23:21:09.171Z,30.45
2023-02-22T23:23:41.384Z,31.17
2023-02-22T23:26:18.295Z,29.88
2023-02-22T23:28:52.668Z,28.83
2023-02-22T23:31:24.012Z,31.92
2023-02-22T23:33:59.234Z,32.22
2023-02-22T23:36:30.925Z,29.35
2023-02-22T23:39:02.162Z,33.92
2023-02-22T23:41:36.713Z,32.90
2023-02-22T23:44:08.714Z,26.60
2023-02-22T23:46:41.557Z,26.30
2023-02-22T23:49:17.671Z,17.55
2023-02-22T23:51:49.354Z,16.13
2023-02-22T23:54:24.691Z,14.98
2023-02-22T23:57:02.548Z,14.25
2023-02-22T23:59:34.162Z,16.42
